CCA3 weather

Cable Head Airpark
Cable Head, Prince Edward Island, Canada

Public forecast

Using degrees Celsius for public forecast. Weather courtesy of forecast.io.

METAR (pilot weather report)

Closest report is Charlottetown Airport, 23.7 nm (44.0 km) WSW. Retrieved 2019/09/20 17:00 UTC (3 minutes ago):

CYYG 201700Z 21006KT 190V250 15SM FEW280 21/12 A2993 RMK CI1 CI TR SLP138 DENSITY ALT 900FT

TAF (pilot weather forecast)

Closest forecast is Charlottetown Airport, 23.7 nm (44.0 km) WSW. Retrieved 2019/09/20 12:39 UTC (4 hours ago):

TAF CYYG 201138Z 2012/2024 22005KT P6SM BKN250 FM201800 26008KT P6SM FEW040 SCT120 RMK NXT FCST BY 201800Z